Amsterdam — PBAD — position and weather

sailwx.info

Track history (hours):
 
Tides and Currents Weather Stations Pressure Air Temp Water Temp Dewpoint Dewpoint Depression Visibility Wind Speed Wind Dir Waves Ship Positions

Amsterdam

Operator: Holland America Line

Last reported at 2020-Sep-23 11:37 UTC. Time now 2020-Oct-01 07:34 UTC.
Position N 56°01' W 003°27'.

Type: Ship. MMSI: 244370000.

Date/timePositionNaut miles runAvg speedWind from/ knotsBaromVisibWave heightAir tempDewpointWater temp
2020-Sep-23 11:37N 56°01' W 003°27'0 0.0
2020-Sep-23 10:49N 56°01' W 003°27'0 0.0
2020-Sep-23 10:13N 56°01' W 003°27'0 0.0
2020-Sep-22 22:43N 56°01' W 003°27'0 0.0
2020-Sep-22 11:52N 56°01' W 003°27'0 0.0
2020-Sep-22 10:55N 56°01' W 003°27'0 0.0
2020-Sep-22 09:52N 56°01' W 003°27'0 0.0
2020-Sep-22 09:25N 56°01' W 003°27'0 0.0
2020-Sep-22 07:01N 56°01' W 003°27'0 0.0
2020-Sep-22 06:55N 56°01' W 003°27'0 0.0
2020-Sep-21 15:31N 56°01' W 003°27'0 0.0
2020-Sep-21 13:37N 56°01' W 003°27'0 0.0
2020-Sep-21 10:25N 56°01' W 003°27'0 0.0
2020-Sep-21 08:12N 56°01' W 003°27'0 0.0
2020-Sep-21 07:00N 56°01' W 003°27'0 0.0
2020-Sep-21 05:07N 56°01' W 003°27'0 0.0
2020-Sep-21 01:25N 56°01' W 003°27'0 0.0
2020-Sep-21 00:31N 56°01' W 003°27'0 0.0
2020-Sep-20 23:18N 56°01' W 003°27'0 0.0
2020-Sep-20 19:30N 56°01' W 003°27'0 0.0
2020-Sep-20 18:48N 56°01' W 003°27'0 0.0
2020-Sep-20 18:00N 56°01' W 003°27'0 0.0
2020-Sep-20 17:24N 56°01' W 003°27'0 0.0
2020-Sep-20 17:00N 56°01' W 003°27'0 0.0
2020-Sep-20 16:30N 56°01' W 003°27'0 0.0
2020-Sep-20 15:42N 56°01' W 003°27'0 0.0
2020-Sep-20 10:27N 56°01' W 003°27'0 0.0
2020-Sep-20 08:24N 56°01' W 003°27'0 0.0
2020-Sep-20 07:00N 56°01' W 003°27'0 0.0
2020-Sep-20 06:00N 56°01' W 003°27'0 0.0
2020-Sep-20 00:00N 56°01' W 003°27'0 0.0
2020-Sep-19 20:24N 56°01' W 003°27'0 0.0
2020-Sep-19 19:00N 56°01' W 003°27'0 0.0
2020-Sep-19 17:30N 56°01' W 003°27'0 0.0
2020-Sep-19 16:30N 56°01' W 003°27'0 0.0
2020-Sep-19 13:48N 56°01' W 003°27'0 0.0
2020-Sep-19 09:57N 56°01' W 003°27'0 0.0
2020-Sep-19 07:27N 56°01' W 003°27'0 0.0
2020-Sep-19 07:00N 56°01' W 003°27'0 0.0
2020-Sep-19 05:00N 56°01' W 003°27'0 0.0
2020-Sep-19 04:30N 56°01' W 003°27'0 0.0
2020-Sep-19 02:30N 56°01' W 003°27'0 0.0
2020-Sep-19 01:24N 56°01' W 003°27'0 0.0
2020-Sep-18 23:30N 56°01' W 003°27'0 0.0
2020-Sep-18 22:30N 56°01' W 003°27'0 0.0
2020-Sep-18 20:00N 56°01' W 003°27'0 0.0
2020-Sep-18 19:00N 56°01' W 003°27'0 0.0
2020-Sep-18 18:00N 56°01' W 003°27'0 0.0
2020-Sep-18 15:00N 56°01' W 003°27'0 0.0
2020-Sep-18 13:12N 56°01' W 003°27'0 0.0
2020-Sep-18 07:24N 56°01' W 003°27'0 0.0
2020-Sep-18 06:54N 56°01' W 003°27'0 0.0
2020-Sep-18 04:51N 56°01' W 003°27'0 0.0
2020-Sep-18 02:39N 56°01' W 003°27'0 0.0
2020-Sep-17 19:12N 56°01' W 003°27'0 0.0
2020-Sep-17 11:57N 56°01' W 003°27'2 0.6
2020-Sep-17 07:58N 56°00' W 003°23'511.1
2020-Sep-17 07:30N 56°02' W 003°14'611.9
2020-Sep-17 07:00N 56°04' W 003°04'3 6.1
2020-Sep-17 06:31N 56°04' W 002°59'1 0.4
2020-Sep-17 03:29N 56°03' W 002°57'0 0.1
2020-Sep-17 02:59N 56°03' W 002°57'0 0.0
2020-Sep-17 01:29N 56°03' W 002°57'0 0.0
2020-Sep-17 00:59N 56°03' W 002°57'0 0.0
2020-Sep-17 00:29N 56°03' W 002°57'0 0.0
2020-Sep-16 23:59N 56°03' W 002°57'0 0.0
2020-Sep-16 20:29N 56°03' W 002°57'0 0.0
2020-Sep-16 18:29N 56°03' W 002°57'0 0.0
2020-Sep-16 17:59N 56°03' W 002°57'0 0.0
2020-Sep-16 16:59N 56°03' W 002°57'0 0.0
2020-Sep-16 16:29N 56°03' W 002°57'0 0.0
2020-Sep-16 11:59N 56°03' W 002°57'13 2.6
2020-Sep-16 07:00N 56°01' W 003°20'19 9.3
2020-Sep-16 05:01N 56°06' W 002°48'714.5
2020-Sep-16 04:31N 56°07' W 002°35'714.5
2020-Sep-16 04:00N 56°07' W 002°22'1414.6
2020-Sep-16 03:01N 56°07' W 001°56'4414.7
2020-Sep-16 00:01N 55°39' W 000°56'2214.5
2020-Sep-15 22:30N 55°24' W 000°27'13115.4
2020-Sep-15 14:00N 53°57' E 002°22'714.6
2020-Sep-15 13:30N 53°52' E 002°30'2214.6
2020-Sep-15 12:00N 53°36' E 002°55'3514.1
2020-Sep-15 09:31N 53°01' E 003°10'2813.7
2020-Sep-15 07:30N 52°41' E 003°40'2713.4
2020-Sep-15 05:30N 52°18' E 004°02'10 4.2
2020-Sep-15 03:01N 52°10' E 004°14'0 0.0
2020-Sep-15 02:30N 52°10' E 004°14'0 0.0
2020-Sep-14 20:57N 52°10' E 004°13'0 0.0
2020-Sep-14 20:00N 52°10' E 004°13'0 0.0
2020-Sep-14 14:30N 52°10' E 004°14'0 0.0
2020-Sep-14 12:30N 52°10' E 004°14'1 6.0
2020-Sep-14 12:17N 52°11' E 004°15'1 0.6
2020-Sep-14 10:00N 52°10' E 004°14'0 0.0
2020-Sep-14 06:30N 52°10' E 004°14'0 0.0
2020-Sep-14 05:30N 52°10' E 004°14'0 0.0
2020-Sep-14 05:00N 52°10' E 004°14'0 0.0
2020-Sep-14 04:00N 52°10' E 004°14'0 0.1
2020-Sep-14 03:30N 52°10' E 004°14'0 0.0
2020-Sep-14 03:00N 52°10' E 004°14'0 0.0
2020-Sep-14 02:30N 52°10' E 004°14'0 0.0
2020-Sep-14 01:00N 52°10' E 004°14'0 0.0
2020-Sep-13 22:30N 52°10' E 004°14'0 0.0
2020-Sep-13 22:00N 52°10' E 004°14'0 0.0
2020-Sep-13 21:30N 52°10' E 004°14'0 0.0
2020-Sep-13 16:00N 52°10' E 004°14'0 0.0
2020-Sep-13 15:30N 52°10' E 004°14'0 0.0
2020-Sep-13 14:30N 52°10' E 004°14'0 0.0
2020-Sep-13 13:30N 52°10' E 004°14'  
Track history (hours):
 
Tides and Currents Weather Stations Pressure Air Temp Water Temp Dewpoint Dewpoint Depression Visibility Wind Speed Wind Dir Waves Ship Positions

Amsterdam

Operator: Holland America Line

Last reported at 2020-Sep-23 11:37 UTC. Time now 2020-Oct-01 07:34 UTC.
Position N 56°01' W 003°27'.

Type: Ship. MMSI: 244370000.

Date/timePositionNaut miles runAvg speedWind from/ knotsBaromVisibWave heightAir tempDewpointWater temp
2020-Sep-23 11:37N 56°01' W 003°27'0 0.0
2020-Sep-23 10:49N 56°01' W 003°27'0 0.0
2020-Sep-23 10:13N 56°01' W 003°27'0 0.0
2020-Sep-22 22:43N 56°01' W 003°27'0 0.0
2020-Sep-22 11:52N 56°01' W 003°27'0 0.0
2020-Sep-22 10:55N 56°01' W 003°27'0 0.0
2020-Sep-22 09:52N 56°01' W 003°27'0 0.0
2020-Sep-22 09:25N 56°01' W 003°27'0 0.0
2020-Sep-22 07:01N 56°01' W 003°27'0 0.0
2020-Sep-22 06:55N 56°01' W 003°27'0 0.0
2020-Sep-21 15:31N 56°01' W 003°27'0 0.0
2020-Sep-21 13:37N 56°01' W 003°27'0 0.0
2020-Sep-21 10:25N 56°01' W 003°27'0 0.0
2020-Sep-21 08:12N 56°01' W 003°27'0 0.0
2020-Sep-21 07:00N 56°01' W 003°27'0 0.0
2020-Sep-21 05:07N 56°01' W 003°27'0 0.0
2020-Sep-21 01:25N 56°01' W 003°27'0 0.0
2020-Sep-21 00:31N 56°01' W 003°27'0 0.0
2020-Sep-20 23:18N 56°01' W 003°27'0 0.0
2020-Sep-20 19:30N 56°01' W 003°27'0 0.0
2020-Sep-20 18:48N 56°01' W 003°27'0 0.0
2020-Sep-20 18:00N 56°01' W 003°27'0 0.0
2020-Sep-20 17:24N 56°01' W 003°27'0 0.0
2020-Sep-20 17:00N 56°01' W 003°27'0 0.0
2020-Sep-20 16:30N 56°01' W 003°27'0 0.0
2020-Sep-20 15:42N 56°01' W 003°27'0 0.0
2020-Sep-20 10:27N 56°01' W 003°27'0 0.0
2020-Sep-20 08:24N 56°01' W 003°27'0 0.0
2020-Sep-20 07:00N 56°01' W 003°27'0 0.0
2020-Sep-20 06:00N 56°01' W 003°27'0 0.0
2020-Sep-20 00:00N 56°01' W 003°27'0 0.0
2020-Sep-19 20:24N 56°01' W 003°27'0 0.0
2020-Sep-19 19:00N 56°01' W 003°27'0 0.0
2020-Sep-19 17:30N 56°01' W 003°27'0 0.0
2020-Sep-19 16:30N 56°01' W 003°27'0 0.0
2020-Sep-19 13:48N 56°01' W 003°27'0 0.0
2020-Sep-19 09:57N 56°01' W 003°27'0 0.0
2020-Sep-19 07:27N 56°01' W 003°27'0 0.0
2020-Sep-19 07:00N 56°01' W 003°27'0 0.0
2020-Sep-19 05:00N 56°01' W 003°27'0 0.0
2020-Sep-19 04:30N 56°01' W 003°27'0 0.0
2020-Sep-19 02:30N 56°01' W 003°27'0 0.0
2020-Sep-19 01:24N 56°01' W 003°27'0 0.0
2020-Sep-18 23:30N 56°01' W 003°27'0 0.0
2020-Sep-18 22:30N 56°01' W 003°27'0 0.0
2020-Sep-18 20:00N 56°01' W 003°27'0 0.0
2020-Sep-18 19:00N 56°01' W 003°27'0 0.0
2020-Sep-18 18:00N 56°01' W 003°27'0 0.0
2020-Sep-18 15:00N 56°01' W 003°27'0 0.0
2020-Sep-18 13:12N 56°01' W 003°27'0 0.0
2020-Sep-18 07:24N 56°01' W 003°27'0 0.0
2020-Sep-18 06:54N 56°01' W 003°27'0 0.0
2020-Sep-18 04:51N 56°01' W 003°27'0 0.0
2020-Sep-18 02:39N 56°01' W 003°27'0 0.0
2020-Sep-17 19:12N 56°01' W 003°27'0 0.0
2020-Sep-17 11:57N 56°01' W 003°27'2 0.6
2020-Sep-17 07:58N 56°00' W 003°23'511.1
2020-Sep-17 07:30N 56°02' W 003°14'611.9
2020-Sep-17 07:00N 56°04' W 003°04'3 6.1
2020-Sep-17 06:31N 56°04' W 002°59'1 0.4
2020-Sep-17 03:29N 56°03' W 002°57'0 0.1
2020-Sep-17 02:59N 56°03' W 002°57'0 0.0
2020-Sep-17 01:29N 56°03' W 002°57'0 0.0
2020-Sep-17 00:59N 56°03' W 002°57'0 0.0
2020-Sep-17 00:29N 56°03' W 002°57'0 0.0
2020-Sep-16 23:59N 56°03' W 002°57'0 0.0
2020-Sep-16 20:29N 56°03' W 002°57'0 0.0
2020-Sep-16 18:29N 56°03' W 002°57'0 0.0
2020-Sep-16 17:59N 56°03' W 002°57'0 0.0
2020-Sep-16 16:59N 56°03' W 002°57'0 0.0
2020-Sep-16 16:29N 56°03' W 002°57'0 0.0
2020-Sep-16 11:59N 56°03' W 002°57'13 2.6
2020-Sep-16 07:00N 56°01' W 003°20'19 9.3
2020-Sep-16 05:01N 56°06' W 002°48'714.5
2020-Sep-16 04:31N 56°07' W 002°35'714.5
2020-Sep-16 04:00N 56°07' W 002°22'1414.6
2020-Sep-16 03:01N 56°07' W 001°56'4414.7
2020-Sep-16 00:01N 55°39' W 000°56'2214.5
2020-Sep-15 22:30N 55°24' W 000°27'13115.4
2020-Sep-15 14:00N 53°57' E 002°22'714.6
2020-Sep-15 13:30N 53°52' E 002°30'2214.6
2020-Sep-15 12:00N 53°36' E 002°55'3514.1
2020-Sep-15 09:31N 53°01' E 003°10'2813.7
2020-Sep-15 07:30N 52°41' E 003°40'2713.4
2020-Sep-15 05:30N 52°18' E 004°02'10 4.2
2020-Sep-15 03:01N 52°10' E 004°14'0 0.0
2020-Sep-15 02:30N 52°10' E 004°14'0 0.0
2020-Sep-14 20:57N 52°10' E 004°13'0 0.0
2020-Sep-14 20:00N 52°10' E 004°13'0 0.0
2020-Sep-14 14:30N 52°10' E 004°14'0 0.0
2020-Sep-14 12:30N 52°10' E 004°14'1 6.0
2020-Sep-14 12:17N 52°11' E 004°15'1 0.6
2020-Sep-14 10:00N 52°10' E 004°14'0 0.0
2020-Sep-14 06:30N 52°10' E 004°14'0 0.0
2020-Sep-14 05:30N 52°10' E 004°14'0 0.0
2020-Sep-14 05:00N 52°10' E 004°14'0 0.0
2020-Sep-14 04:00N 52°10' E 004°14'0 0.1
2020-Sep-14 03:30N 52°10' E 004°14'0 0.0
2020-Sep-14 03:00N 52°10' E 004°14'0 0.0
2020-Sep-14 02:30N 52°10' E 004°14'0 0.0
2020-Sep-14 01:00N 52°10' E 004°14'0 0.0
2020-Sep-13 22:30N 52°10' E 004°14'0 0.0
2020-Sep-13 22:00N 52°10' E 004°14'0 0.0
2020-Sep-13 21:30N 52°10' E 004°14'0 0.0
2020-Sep-13 16:00N 52°10' E 004°14'0 0.0
2020-Sep-13 15:30N 52°10' E 004°14'0 0.0
2020-Sep-13 14:30N 52°10' E 004°14'0 0.0
2020-Sep-13 13:30N 52°10' E 004°14'  

Dump ship's entire track history